Time;durP1;ratioP1;P1;durP2;ratioP2;P2;SDS_P1;SDS_P2;PMS_P1;PMS_P2;Temp;Humidity;BMP_temperature;BMP_pressure;BME280_temperature;BME280_humidity;BME280_pressure;Samples;Min_cycle;Max_cycle;Signal;HPM_P1;HPM_P2
2022/01/12 00:01:54;;;;;;;11.07;5.40;;;;;;;-0.96;60.84;94400.22;5022804;28;20021;-86
2022/01/12 00:04:20;;;;;;;10.13;4.70;;;;;;;-0.95;60.85;94395.78;5022870;28;20025;-85
2022/01/12 00:06:45;;;;;;;11.57;5.05;;;;;;;-0.93;60.79;94404.22;5022964;28;20018;-86
2022/01/12 00:09:11;;;;;;;9.38;4.32;;;;;;;-0.95;60.47;94395.78;5025773;28;20025;-86
2022/01/12 00:11:37;;;;;;;10.40;4.40;;;;;;;-0.99;61.01;94403.28;5026151;28;20017;-86
2022/01/12 00:14:04;;;;;;;9.25;5.07;;;;;;;-0.98;61.31;94407.50;5026207;28;20025;-85
2022/01/12 00:16:30;;;;;;;9.25;4.18;;;;;;;-0.96;60.87;94408.06;5026455;28;20025;-86
2022/01/12 00:18:56;;;;;;;13.50;5.75;;;;;;;-1.01;60.58;94405.34;5025008;28;20022;-87
2022/01/12 00:21:21;;;;;;;10.60;4.70;;;;;;;-1.07;60.54;94416.72;5026317;28;20032;-85
2022/01/12 00:23:47;;;;;;;9.85;5.18;;;;;;;-1.03;60.59;94412.63;5026279;28;20028;-85
2022/01/12 00:26:26;;;;;;;8.85;4.88;;;;;;;-1.02;60.97;94417.63;5025771;28;20091;-85
2022/01/12 00:34:19;;;;;;;11.35;5.05;;;;;;;-1.22;60.69;94423.19;5026137;28;20068;-85
2022/01/12 00:36:45;;;;;;;8.70;4.68;;;;;;;-1.24;61.55;94429.69;5026158;28;20030;-85
2022/01/12 00:39:14;;;;;;;9.23;4.70;;;;;;;-1.24;62.08;94432.28;5026224;28;20048;-86
2022/01/12 00:41:41;;;;;;;10.63;5.25;;;;;;;-1.24;62.08;94427.06;5025760;28;20053;-86
2022/01/12 00:44:09;;;;;;;12.93;5.78;;;;;;;-1.28;61.38;94424.09;5025579;28;20049;-85
2022/01/12 00:46:35;;;;;;;13.80;5.32;;;;;;;-1.29;61.91;94421.69;5025385;28;20232;-86
2022/01/12 00:49:01;;;;;;;13.65;5.72;;;;;;;-1.30;62.29;94426.13;5025185;28;20042;-86
2022/01/12 00:51:31;;;;;;;9.70;5.30;;;;;;;-1.34;61.96;94425.00;5025318;28;20268;-85
2022/01/12 00:53:58;;;;;;;11.40;5.05;;;;;;;-1.34;62.29;94418.94;5024365;28;20117;-87
2022/01/12 00:56:24;;;;;;;10.48;4.82;;;;;;;-1.28;62.49;94423.31;5024490;28;20256;-87
2022/01/12 00:58:50;;;;;;;12.63;5.80;;;;;;;-1.25;63.21;94421.00;5024524;28;20022;-87
2022/01/12 01:01:18;;;;;;;13.32;5.82;;;;;;;-1.27;63.32;94423.06;5025824;28;20097;-87
2022/01/12 01:03:43;;;;;;;11.23;5.10;;;;;;;-1.24;63.90;94424.44;5025285;28;20021;-87
2022/01/12 01:06:11;;;;;;;9.57;5.32;;;;;;;-1.32;63.66;94417.72;5025250;28;20022;-87
2022/01/12 01:08:36;;;;;;;11.95;5.20;;;;;;;-1.30;63.86;94414.88;5024435;28;20033;-87
2022/01/12 01:11:02;;;;;;;13.48;5.80;;;;;;;-1.34;63.85;94419.75;5025336;28;20025;-87
2022/01/12 01:13:35;;;;;;;10.48;4.50;;;;;;;-1.35;61.69;94417.38;5025480;28;20141;-87
2022/01/12 01:26:49;;;;;;;11.63;5.18;;;;;;;-1.30;63.25;94426.13;5026621;28;20081;-86
2022/01/12 01:29:18;;;;;;;14.55;5.43;;;;;;;-1.23;63.11;94424.19;5026593;28;20032;-86
2022/01/12 01:31:45;;;;;;;10.13;4.72;;;;;;;-1.22;63.59;94422.41;5025346;28;20224;-86
2022/01/12 01:34:14;;;;;;;10.10;5.45;;;;;;;-1.27;63.54;94414.41;5025417;28;20034;-85
2022/01/12 01:36:48;;;;;;;11.85;5.80;;;;;;;-1.20;63.01;94422.97;5024715;28;20049;-86
2022/01/12 01:39:17;;;;;;;11.32;5.75;;;;;;;-1.18;63.20;94431.38;5024527;28;20021;-86
2022/01/12 01:41:48;;;;;;;13.98;6.13;;;;;;;-1.16;63.12;94421.50;5024449;28;20026;-85
2022/01/12 01:54:54;;;;;;;13.27;5.03;;;;;;;-1.20;61.33;94430.81;5024471;28;20029;-85
2022/01/12 01:57:20;;;;;;;9.80;5.18;;;;;;;-1.14;61.71;94429.09;5024451;28;20022;-86
2022/01/12 01:59:45;;;;;;;11.23;5.05;;;;;;;-1.12;61.83;94433.09;5024300;28;20320;-85
2022/01/12 02:02:12;;;;;;;11.38;4.90;;;;;;;-1.02;60.74;94433.34;5024031;28;20029;-85
2022/01/12 02:04:38;;;;;;;9.63;4.72;;;;;;;-1.05;60.42;94446.06;5039298;28;20026;-85
2022/01/12 02:07:04;;;;;;;10.88;5.32;;;;;;;-1.03;60.76;94444.03;5024147;28;20048;-85
2022/01/12 02:09:30;;;;;;;9.38;4.40;;;;;;;-1.07;61.32;94448.91;5022810;28;20033;-85
2022/01/12 02:11:55;;;;;;;9.90;4.63;;;;;;;-1.08;62.52;94443.88;5024021;28;20046;-86
2022/01/12 02:14:21;;;;;;;9.35;4.43;;;;;;;-1.09;62.04;94447.53;5022932;28;20338;-86
2022/01/12 02:17:34;;;;;;;8.23;4.63;;;;;;;-1.09;61.03;94443.09;5039432;28;20026;-86
2022/01/12 02:36:09;;;;;;;9.93;4.82;;;;;;;-1.32;59.92;94467.41;5025585;28;20049;-85
2022/01/12 02:41:20;;;;;;;7.55;3.63;;;;;;;-1.48;58.94;94466.22;5025694;28;20067;-84
2022/01/12 02:54:49;;;;;;;12.13;4.90;;;;;;;-1.92;61.48;94489.09;5027526;28;20360;-86
2022/01/12 02:57:15;;;;;;;7.95;4.03;;;;;;;-2.15;60.66;94497.63;5025668;28;20041;-84
2022/01/12 03:00:01;;;;;;;11.40;4.45;;;;;;;-2.21;61.33;94495.88;5026510;28;20089;-84
2022/01/12 03:02:37;;;;;;;7.85;4.13;;;;;;;-2.25;60.62;94495.50;5025213;28;20045;-85
2022/01/12 03:07:36;;;;;;;11.30;4.15;;;;;;;-2.38;61.09;94506.09;5024423;28;20221;-86
2022/01/12 03:10:04;;;;;;;9.85;4.85;;;;;;;-2.35;62.04;94508.28;5024786;28;20026;-85
2022/01/12 03:12:35;;;;;;;9.10;4.35;;;;;;;-2.31;63.41;94512.03;5042548;28;20385;-85
2022/01/12 03:15:00;;;;;;;10.75;4.30;;;;;;;-2.24;63.22;94510.19;5029698;28;20018;-85
2022/01/12 03:17:25;;;;;;;10.18;5.07;;;;;;;-2.11;62.38;94513.66;5028537;28;20048;-85
2022/01/12 03:19:51;;;;;;;11.93;4.72;;;;;;;-1.98;62.18;94512.69;5026514;28;20044;-83
2022/01/12 03:22:16;;;;;;;10.48;5.13;;;;;;;-1.94;61.56;94514.66;5023685;28;20076;-88
2022/01/12 03:24:42;;;;;;;8.27;3.80;;;;;;;-1.89;60.43;94522.66;5022540;28;20132;-88
2022/01/12 03:27:12;;;;;;;8.23;4.32;;;;;;;-1.85;60.55;94528.25;5023481;28;20316;-87
2022/01/12 03:29:41;;;;;;;12.25;4.75;;;;;;;-1.82;60.58;94528.56;5023127;28;20034;-86
2022/01/12 03:32:07;;;;;;;10.02;4.28;;;;;;;-1.78;60.12;94530.75;5022978;28;20026;-85
2022/01/12 03:34:34;;;;;;;11.35;5.18;;;;;;;-1.85;59.69;94531.66;5023581;28;20025;-85
2022/01/12 04:10:00;;;;;;;11.02;5.03;;;;;;;-1.87;60.40;94572.09;5025919;28;20033;-86
2022/01/12 04:12:28;;;;;;;9.07;4.28;;;;;;;-1.83;61.38;94576.66;5025814;28;20045;-86
2022/01/12 04:14:53;;;;;;;11.02;5.22;;;;;;;-1.75;61.45;94586.00;5025717;28;20116;-85
2022/01/12 04:17:19;;;;;;;12.75;5.20;;;;;;;-1.73;60.39;94589.22;5025634;28;20025;-85
2022/01/12 04:19:44;;;;;;;8.48;4.55;;;;;;;-1.83;59.15;94589.72;5025767;28;20038;-85
2022/01/12 04:24:59;;;;;;;9.77;4.93;;;;;;;-1.80;59.86;94600.75;5034058;28;20224;-85
2022/01/12 04:27:24;;;;;;;12.23;5.07;;;;;;;-1.73;60.20;94593.63;5026021;28;20018;-86
2022/01/12 04:29:49;;;;;;;10.32;4.47;;;;;;;-1.69;60.49;94597.38;5025608;28;20045;-82
2022/01/12 04:32:15;;;;;;;12.75;4.97;;;;;;;-1.65;59.88;94606.41;5025231;28;20022;-83
2022/01/12 04:34:40;;;;;;;10.52;4.78;;;;;;;-1.63;59.08;94609.59;5025165;28;20076;-84
2022/01/12 04:37:06;;;;;;;12.07;5.05;;;;;;;-1.66;59.40;94604.81;5025312;28;20073;-84
2022/01/12 04:39:31;;;;;;;11.45;4.30;;;;;;;-1.76;58.61;94601.91;5025466;28;20135;-88
2022/01/12 04:41:57;;;;;;;13.10;4.65;;;;;;;-1.88;59.46;94605.22;5041237;28;20032;-83
2022/01/12 04:44:23;;;;;;;13.98;5.60;;;;;;;-1.87;60.47;94608.66;5025080;28;20217;-84
2022/01/12 04:46:52;;;;;;;13.95;5.53;;;;;;;-1.85;60.63;94617.88;5025069;28;20021;-85
2022/01/12 04:49:47;;;;;;;11.95;5.20;;;;;;;-1.88;59.48;94609.66;5025022;28;20328;-85
2022/01/12 04:52:06;;;;;;;10.85;4.78;;;;;;;-1.87;58.72;94614.69;5025507;28;20029;-88
2022/01/12 04:54:31;;;;;;;9.65;4.55;;;;;;;-1.95;58.71;94614.97;5025000;28;20221;-85
2022/01/12 04:56:57;;;;;;;13.43;6.30;;;;;;;-2.00;59.40;94630.47;5024893;28;20034;-85
2022/01/12 04:59:23;;;;;;;8.10;4.82;;;;;;;-2.04;59.37;94618.84;5024940;28;20025;-88
2022/01/12 05:01:56;;;;;;;11.13;5.50;;;;;;;-2.01;59.77;94634.13;5025698;28;20049;-88
2022/01/12 05:07:25;;;;;;;10.57;4.75;;;;;;;-1.94;59.34;94632.22;5025232;28;20382;-89
2022/01/12 05:15:25;;;;;;;11.95;5.57;;;;;;;-1.86;59.22;94645.00;5025535;28;20021;-89
2022/01/12 05:17:50;;;;;;;13.43;4.50;;;;;;;-1.78;58.80;94653.59;5025173;28;20026;-88
2022/01/12 05:20:16;;;;;;;10.10;4.97;;;;;;;-1.69;59.52;94657.50;5023821;28;20029;-87
2022/01/12 05:22:41;;;;;;;11.07;5.13;;;;;;;-1.66;59.24;94664.94;5024027;28;20029;-88
2022/01/12 05:25:07;;;;;;;10.05;4.93;;;;;;;-1.72;59.15;94661.38;5025314;28;20117;-88
2022/01/12 05:27:33;;;;;;;12.38;5.03;;;;;;;-1.72;58.36;94663.19;5025080;28;20320;-88
2022/01/12 05:29:58;;;;;;;11.13;5.55;;;;;;;-1.71;58.84;94670.00;5024963;28;20035;-88
2022/01/12 05:32:25;;;;;;;9.68;4.93;;;;;;;-1.93;57.28;94670.41;5025077;28;20087;-89
2022/01/12 05:34:57;;;;;;;12.27;4.78;;;;;;;-2.00;57.70;94677.50;5024926;28;20026;-88
2022/01/12 05:37:23;;;;;;;10.60;5.38;;;;;;;-1.92;59.11;94679.03;5024977;28;20029;-87
2022/01/12 05:39:48;;;;;;;11.23;5.25;;;;;;;-1.92;59.10;94679.84;5024925;28;20489;-88
2022/01/12 05:42:14;;;;;;;7.97;4.00;;;;;;;-1.90;59.06;94683.03;5024627;28;20066;-87
2022/01/12 05:44:41;;;;;;;10.45;4.65;;;;;;;-1.87;59.10;94677.41;5024743;28;20089;-88
2022/01/12 05:47:16;;;;;;;14.27;5.00;;;;;;;-1.84;58.73;94684.00;5024705;28;20056;-88
2022/01/12 05:49:44;;;;;;;10.38;4.65;;;;;;;-1.83;58.81;94683.00;5024650;28;20033;-88
2022/01/12 05:52:09;;;;;;;10.60;5.47;;;;;;;-1.86;58.14;94686.03;5024642;28;20033;-88
2022/01/12 05:54:35;;;;;;;11.00;5.38;;;;;;;-1.79;58.41;94691.19;5024692;28;20021;-89
2022/01/12 05:57:00;;;;;;;9.05;4.47;;;;;;;-1.75;58.78;94690.56;5024468;28;20025;-88
2022/01/12 05:59:26;;;;;;;8.38;4.07;;;;;;;-1.72;58.74;94689.31;5023633;28;20017;-89
2022/01/12 06:01:52;;;;;;;10.10;5.25;;;;;;;-1.62;58.48;94694.84;5024627;28;20237;-88
2022/01/12 06:04:17;;;;;;;10.98;5.10;;;;;;;-1.58;58.64;94705.69;5024488;28;20018;-88
2022/01/12 06:06:43;;;;;;;9.85;4.85;;;;;;;-1.53;58.24;94704.00;5024074;28;20018;-88
2022/01/12 06:09:08;;;;;;;9.88;4.40;;;;;;;-1.51;57.29;94709.00;5039951;28;20024;-88
2022/01/12 06:11:33;;;;;;;12.95;5.20;;;;;;;-1.48;57.16;94717.22;5024195;28;20045;-88
2022/01/12 06:13:59;;;;;;;11.45;5.28;;;;;;;-1.46;57.67;94720.44;5024252;28;20021;-89
2022/01/12 06:16:25;;;;;;;11.98;4.93;;;;;;;-1.41;56.64;94717.94;5024354;28;20026;-88
2022/01/12 06:18:50;;;;;;;10.57;4.63;;;;;;;-1.37;57.00;94728.78;5024484;28;20216;-88
2022/01/12 06:21:16;;;;;;;10.35;5.05;;;;;;;-1.32;56.85;94722.91;5024287;28;20220;-89
2022/01/12 06:23:41;;;;;;;11.15;5.07;;;;;;;-1.32;57.36;94735.97;5024153;28;20051;-89
2022/01/12 06:26:07;;;;;;;8.88;4.82;;;;;;;-1.31;57.70;94732.34;5023336;28;20093;-89
2022/01/12 06:31:10;;;;;;;11.77;6.03;;;;;;;-1.29;57.52;94735.56;5024057;28;20020;-87
2022/01/12 06:33:36;;;;;;;12.38;6.05;;;;;;;-1.31;58.01;94737.59;5023825;28;20060;-87
2022/01/12 06:36:03;;;;;;;9.65;4.68;;;;;;;-1.28;57.70;94743.19;5023613;28;20143;-86
2022/01/12 06:38:28;;;;;;;10.13;4.68;;;;;;;-1.23;57.81;94745.16;5023562;28;20029;-87
2022/01/12 06:40:54;;;;;;;10.77;4.47;;;;;;;-1.17;56.78;94748.72;5023542;28;20021;-87
2022/01/12 06:43:19;;;;;;;10.05;4.68;;;;;;;-1.21;56.42;94754.38;5023512;28;20047;-87
2022/01/12 06:45:45;;;;;;;9.20;4.43;;;;;;;-1.24;56.54;94756.63;5023531;28;20022;-87
2022/01/12 06:48:10;;;;;;;9.15;5.03;;;;;;;-1.17;56.12;94765.22;5023626;28;20029;-87
2022/01/12 06:50:36;;;;;;;10.75;5.03;;;;;;;-1.17;54.38;94751.34;5023556;28;20022;-86
2022/01/12 06:53:01;;;;;;;12.60;4.32;;;;;;;-1.15;54.27;94755.31;5023873;28;20111;-87
2022/01/12 06:55:27;;;;;;;11.13;5.22;;;;;;;-1.14;55.59;94769.19;5039180;28;20087;-88
2022/01/12 06:57:52;;;;;;;9.13;4.70;;;;;;;-1.11;54.57;94774.00;5023543;28;20105;-88
2022/01/12 07:00:18;;;;;;;9.80;4.68;;;;;;;-1.26;54.51;94771.75;5023481;28;20092;-87
2022/01/12 07:02:43;;;;;;;9.52;4.78;;;;;;;-1.34;55.17;94779.84;5039031;28;20052;-87
2022/01/12 07:05:09;;;;;;;9.65;4.30;;;;;;;-1.51;55.58;94769.94;5023668;28;20288;-87
2022/01/12 07:07:34;;;;;;;10.70;4.45;;;;;;;-1.59;54.01;94785.13;5023574;28;20017;-88
2022/01/12 07:10:00;;;;;;;10.40;4.85;;;;;;;-1.82;55.19;94779.47;5023659;28;20022;-87
2022/01/12 07:12:26;;;;;;;13.25;5.13;;;;;;;-1.90;56.10;94784.16;5023322;28;20041;-87
2022/01/12 07:14:51;;;;;;;9.35;4.95;;;;;;;-2.04;56.16;94786.84;5023369;28;20080;-87
2022/01/12 07:17:20;;;;;;;12.27;4.95;;;;;;;-2.08;56.06;94790.91;5023463;28;20037;-86
2022/01/12 07:19:45;;;;;;;10.90;4.90;;;;;;;-2.10;56.57;94781.69;5027397;28;20081;-87
2022/01/12 07:22:11;;;;;;;13.30;4.50;;;;;;;-2.17;56.71;94786.94;5027411;28;20028;-88
2022/01/12 07:24:36;;;;;;;12.95;4.75;;;;;;;-2.27;56.59;94797.06;5027021;28;20068;-86
2022/01/12 07:27:02;;;;;;;10.95;4.93;;;;;;;-2.35;57.76;94794.69;5042496;28;20173;-86
2022/01/12 07:29:28;;;;;;;16.23;4.18;;;;;;;-2.38;57.84;94802.94;5027271;28;20018;-87
2022/01/12 07:31:53;;;;;;;11.70;5.35;;;;;;;-2.30;58.33;94808.72;5027383;28;20028;-89
2022/01/12 07:34:19;;;;;;;8.43;3.88;;;;;;;-2.19;57.66;94811.69;5027278;28;20037;-88
2022/01/12 07:36:44;;;;;;;11.02;4.13;;;;;;;-2.16;58.33;94816.47;5027110;28;20068;-89
2022/01/12 07:39:10;;;;;;;16.95;6.03;;;;;;;-2.03;57.91;94817.19;5027044;28;20021;-85
2022/01/12 07:41:36;;;;;;;12.43;5.35;;;;;;;-1.98;57.89;94813.94;5026443;28;20252;-85
2022/01/12 07:44:02;;;;;;;12.20;5.40;;;;;;;-1.87;57.75;94815.91;5026553;28;20029;-86
2022/01/12 07:46:28;;;;;;;12.40;5.03;;;;;;;-1.71;56.97;94821.59;5026914;28;20040;-85
2022/01/12 07:48:53;;;;;;;11.50;5.22;;;;;;;-1.62;56.59;94813.28;5026649;28;20093;-85
2022/01/12 07:51:19;;;;;;;11.70;5.63;;;;;;;-1.54;56.76;94814.03;5026330;28;20030;-85
2022/01/12 07:53:45;;;;;;;11.23;4.70;;;;;;;-1.49;55.98;94822.81;5026635;28;20259;-85
2022/01/12 07:56:10;;;;;;;10.43;4.68;;;;;;;-1.36;55.59;94826.34;5026233;28;20371;-86
2022/01/12 07:58:36;;;;;;;9.65;4.88;;;;;;;-1.22;55.74;94826.03;5026130;28;20335;-85
2022/01/12 08:01:01;;;;;;;12.38;5.28;;;;;;;-1.21;53.33;94827.63;5041487;28;20021;-82
2022/01/12 08:03:27;;;;;;;11.27;4.85;;;;;;;-1.14;54.27;94830.19;5024823;28;20224;-84
2022/01/12 08:05:52;;;;;;;11.70;4.50;;;;;;;-1.04;55.13;94832.28;5025595;28;20046;-83
2022/01/12 08:08:20;;;;;;;9.63;4.32;;;;;;;-0.87;54.11;94843.00;5025745;28;20026;-83
2022/01/12 08:10:46;;;;;;;11.80;5.50;;;;;;;-0.86;53.41;94847.22;5025816;28;20263;-81
2022/01/12 08:13:11;;;;;;;10.18;5.13;;;;;;;-0.81;53.10;94850.00;5025435;28;20041;-81
2022/01/12 08:15:37;;;;;;;12.73;5.95;;;;;;;-0.92;52.57;94867.19;5025648;28;20279;-80
2022/01/12 08:18:02;;;;;;;10.75;5.25;;;;;;;-0.78;53.57;94857.41;5024524;28;20254;-80
2022/01/12 08:20:28;;;;;;;11.13;4.63;;;;;;;-0.66;53.37;94860.09;5024260;28;20030;-81
2022/01/12 08:22:54;;;;;;;8.73;3.95;;;;;;;-0.58;51.25;94859.00;5025487;28;20033;-80
2022/01/12 08:25:21;;;;;;;7.65;3.75;;;;;;;-0.66;50.90;94860.09;5024258;28;20215;-78
2022/01/12 08:27:47;;;;;;;9.27;3.83;;;;;;;-0.79;51.45;94866.28;5025305;28;20244;-77
2022/01/12 08:30:17;;;;;;;19.20;4.18;;;;;;;-0.94;52.08;94860.59;5024944;28;20071;-78
2022/01/12 08:32:44;;;;;;;15.68;4.43;;;;;;;-1.07;52.83;94870.16;5025328;28;20033;-75
2022/01/12 08:35:10;;;;;;;8.23;3.85;;;;;;;-1.10;53.01;94865.38;5024891;28;20025;-77
2022/01/12 08:37:35;;;;;;;11.80;4.00;;;;;;;-1.14;52.58;94866.00;5024992;28;20320;-76
2022/01/12 08:40:00;;;;;;;8.35;3.60;;;;;;;-1.25;52.46;94873.53;5040369;28;20079;-76
2022/01/12 08:42:26;;;;;;;14.73;4.53;;;;;;;-1.38;52.76;94868.44;5025245;28;20049;-76
2022/01/12 08:44:52;;;;;;;13.70;4.43;;;;;;;-1.41;53.70;94871.44;5024965;28;20026;-75
2022/01/12 08:47:18;;;;;;;41.63;24.95;;;;;;;-1.33;54.12;94870.41;5025097;28;20089;-76
2022/01/12 08:49:44;;;;;;;9.85;5.55;;;;;;;-1.33;53.91;94865.94;5025039;28;20028;-76
2022/01/12 08:52:09;;;;;;;12.75;4.97;;;;;;;-1.20;52.68;94870.28;5024921;28;20264;-76
2022/01/12 08:54:35;;;;;;;12.27;4.72;;;;;;;-1.26;52.78;94876.38;5024836;28;20068;-77
2022/01/12 08:57:00;;;;;;;12.57;4.18;;;;;;;-1.27;52.58;94875.56;5040171;28;20026;-75
2022/01/12 08:59:26;;;;;;;7.50;4.00;;;;;;;-1.31;52.81;94868.38;5023486;28;20026;-75
2022/01/12 09:01:52;;;;;;;14.88;4.13;;;;;;;-1.28;53.83;94868.75;5039937;28;20025;-75
2022/01/12 09:04:17;;;;;;;10.48;4.35;;;;;;;-1.18;52.79;94870.06;5024713;28;20355;-75
2022/01/12 09:06:43;;;;;;;6.43;3.78;;;;;;;-1.05;52.63;94873.38;5024631;28;20335;-78
2022/01/12 09:09:08;;;;;;;11.30;3.70;;;;;;;-0.94;52.70;94863.19;5024637;28;20066;-78
2022/01/12 09:11:34;;;;;;;14.43;4.18;;;;;;;-0.83;52.54;94878.22;5024494;28;20331;-78
2022/01/12 09:13:59;;;;;;;12.45;5.13;;;;;;;-0.82;51.91;94866.69;5024718;28;20029;-78
2022/01/12 09:16:25;;;;;;;12.32;4.60;;;;;;;-0.90;51.36;94865.16;5024294;28;20041;-78
2022/01/12 09:18:50;;;;;;;17.48;7.65;;;;;;;-0.99;51.91;94863.84;5039691;28;20037;-78
2022/01/12 09:21:16;;;;;;;10.75;5.45;;;;;;;-1.10;52.06;94865.38;5024241;28;20224;-79
2022/01/12 09:23:44;;;;;;;10.38;3.70;;;;;;;-1.30;52.29;94855.09;5024191;28;20032;-80
2022/01/12 09:26:09;;;;;;;13.43;4.10;;;;;;;-1.26;53.04;94860.69;5024226;28;20041;-81
2022/01/12 09:28:35;;;;;;;11.20;4.50;;;;;;;-1.23;52.90;94862.88;5024167;28;20036;-80
2022/01/12 09:31:00;;;;;;;7.63;3.90;;;;;;;-1.29;52.31;94854.03;5024459;28;20025;-80
2022/01/12 09:33:26;;;;;;;15.27;4.03;;;;;;;-1.37;52.95;94862.16;5024202;28;20059;-81
2022/01/12 09:35:53;;;;;;;10.93;4.35;;;;;;;-1.46;53.47;94861.63;5024173;28;20145;-80
2022/01/12 09:38:19;;;;;;;9.27;3.55;;;;;;;-1.43;53.87;94863.81;5022818;28;20026;-80
2022/01/12 09:40:45;;;;;;;10.73;4.90;;;;;;;-1.31;54.50;94868.38;5023240;28;20093;-81
2022/01/12 09:43:11;;;;;;;10.07;3.50;;;;;;;-1.25;53.06;94859.66;5023923;28;20096;-80
2022/01/12 09:45:39;;;;;;;13.45;4.45;;;;;;;-1.35;52.32;94861.97;5024088;28;20022;-79
2022/01/12 09:48:05;;;;;;;9.93;4.18;;;;;;;-1.39;52.67;94864.19;5039409;28;20100;-79
2022/01/12 09:50:31;;;;;;;7.15;3.25;;;;;;;-1.49;53.74;94859.44;5024117;28;20201;-78
2022/01/12 09:52:56;;;;;;;11.15;3.97;;;;;;;-1.52;53.50;94862.50;5023786;28;20080;-79
2022/01/12 09:55:22;;;;;;;6.28;3.05;;;;;;;-1.49;53.38;94856.81;5023735;28;20025;-78
2022/01/12 09:57:47;;;;;;;9.52;4.15;;;;;;;-1.35;52.94;94861.97;5023624;28;20092;-78
2022/01/12 10:00:16;;;;;;;9.00;3.58;;;;;;;-1.38;52.67;94867.59;5023640;28;20041;-79
2022/01/12 10:02:42;;;;;;;8.80;3.60;;;;;;;-1.53;53.07;94865.31;5039007;28;20025;-78
2022/01/12 10:05:09;;;;;;;5.28;2.92;;;;;;;-1.54;53.30;94861.91;5023719;28;20025;-79
2022/01/12 10:07:35;;;;;;;6.93;3.15;;;;;;;-1.53;53.41;94860.88;5023563;28;20018;-80
2022/01/12 10:10:06;;;;;;;6.53;3.22;;;;;;;-1.43;53.92;94860.41;5023674;28;20046;-80
2022/01/12 10:12:33;;;;;;;9.23;3.10;;;;;;;-1.38;53.08;94865.00;5023449;28;20046;-77
2022/01/12 10:15:01;;;;;;;7.75;3.25;;;;;;;-1.26;53.84;94863.31;5023450;28;20096;-76
2022/01/12 10:17:35;;;;;;;7.82;3.17;;;;;;;-1.10;53.15;94870.59;5023303;28;20026;-77
2022/01/12 10:20:22;;;;;;;9.30;3.92;;;;;;;-1.25;51.77;94870.91;5022286;28;20025;-77
2022/01/12 10:22:57;;;;;;;10.25;3.67;;;;;;;-1.30;52.37;94867.38;5023244;28;20025;-76
2022/01/12 10:25:23;;;;;;;8.32;3.67;;;;;;;-1.45;53.36;94871.06;5023144;28;20104;-76
2022/01/12 10:27:49;;;;;;;8.82;3.03;;;;;;;-1.54;52.97;94864.53;5023248;28;20220;-77
2022/01/12 10:30:22;;;;;;;10.52;3.30;;;;;;;-1.67;52.71;94875.88;5023276;28;20026;-77
2022/01/12 10:33:10;;;;;;;6.40;2.97;;;;;;;-1.66;52.96;94868.81;5023112;28;20071;-75
2022/01/12 10:35:40;;;;;;;6.43;3.50;;;;;;;-1.57;54.10;94864.13;5023014;28;20085;-77
2022/01/12 10:38:10;;;;;;;9.20;3.20;;;;;;;-1.37;54.21;94866.59;5023094;28;20013;-75
2022/01/12 10:40:53;;;;;;;6.30;3.25;;;;;;;-1.20;52.83;94854.59;5023088;28;20316;-75
2022/01/12 10:43:29;;;;;;;8.38;3.55;;;;;;;-1.11;52.60;94858.53;5022853;28;20076;-75
2022/01/12 10:45:55;;;;;;;15.32;3.78;;;;;;;-1.00;52.85;94851.78;5022843;28;20331;-76
2022/01/12 10:48:21;;;;;;;7.53;3.13;;;;;;;-0.81;53.42;94857.84;5023089;28;20022;-76
2022/01/12 10:50:58;;;;;;;8.15;3.35;;;;;;;-0.73;51.87;94860.19;5023036;28;20359;-76
2022/01/12 10:53:31;;;;;;;9.00;3.05;;;;;;;-0.85;51.93;94859.28;5022784;28;20028;-76
2022/01/12 10:56:10;;;;;;;10.10;3.67;;;;;;;-0.79;52.79;94855.81;5022887;28;20060;-76
2022/01/12 10:58:41;;;;;;;8.32;3.42;;;;;;;-0.75;52.07;94858.78;5021720;28;20214;-76
2022/01/12 11:01:08;;;;;;;7.57;3.45;;;;;;;-0.69;52.67;94860.53;5023082;28;20116;-76
2022/01/12 11:03:34;;;;;;;5.78;2.83;;;;;;;-0.58;51.54;94856.41;5023007;28;20025;-76
2022/01/12 11:06:00;;;;;;;7.93;3.72;;;;;;;-0.47;50.73;94863.50;5022897;28;20033;-76
2022/01/12 11:08:27;;;;;;;11.60;3.80;;;;;;;-0.38;50.65;94856.97;5022914;28;20089;-76
2022/01/12 11:10:54;;;;;;;8.63;3.50;;;;;;;-0.35;49.69;94856.50;5022991;28;20336;-76
2022/01/12 11:13:19;;;;;;;5.10;2.90;;;;;;;-0.52;48.21;94845.03;5022457;28;20065;-76
2022/01/12 11:15:45;;;;;;;9.77;3.88;;;;;;;-0.67;50.13;94848.00;5022870;28;20339;-76
2022/01/12 11:18:13;;;;;;;10.05;3.95;;;;;;;-0.77;50.70;94859.00;5022702;28;20097;-76
2022/01/12 11:20:42;;;;;;;8.18;3.00;;;;;;;-0.62;51.67;94851.59;5022621;28;20064;-76
2022/01/12 11:23:15;;;;;;;6.85;3.47;;;;;;;-0.51;49.18;94855.31;5022823;28;20018;-76
2022/01/12 11:25:46;;;;;;;10.00;3.30;;;;;;;-0.42;50.42;94856.59;5022589;28;20117;-76
2022/01/12 11:28:19;;;;;;;8.10;3.63;;;;;;;-0.26;50.21;94860.44;5022836;28;20018;-76
2022/01/12 11:31:05;;;;;;;8.45;2.83;;;;;;;-0.11;49.64;94857.41;5022772;28;20093;-76
2022/01/12 11:33:30;;;;;;;6.05;2.85;;;;;;;-0.03;49.09;94848.47;5022648;28;20030;-76
2022/01/12 11:36:02;;;;;;;6.47;3.00;;;;;;;-0.07;47.90;94863.03;5022846;28;20055;-80
2022/01/12 11:38:35;;;;;;;13.13;4.77;;;;;;;-0.07;47.54;94861.19;5022548;28;20387;-80
2022/01/12 11:41:14;;;;;;;13.68;4.90;;;;;;;-0.05;48.77;94856.53;5022635;28;20316;-80
2022/01/12 11:43:50;;;;;;;7.25;3.67;;;;;;;-0.04;49.24;94859.94;5038018;28;20033;-77
2022/01/12 11:46:22;;;;;;;10.43;2.90;;;;;;;0.04;47.95;94869.34;5037897;28;20033;-78
2022/01/12 11:48:55;;;;;;;18.45;4.80;;;;;;;0.08;48.17;94868.69;5022585;28;20151;-79
2022/01/12 11:51:42;;;;;;;14.95;4.18;;;;;;;0.18;48.74;94862.88;5022270;28;20048;-78
2022/01/12 11:54:19;;;;;;;7.45;3.53;;;;;;;0.16;47.95;94865.75;5022281;28;20037;-78
2022/01/12 11:57:00;;;;;;;6.60;3.28;;;;;;;0.19;47.15;94875.78;5022488;28;20018;-78
2022/01/12 11:59:28;;;;;;;8.90;2.90;;;;;;;0.20;47.38;94873.94;5022374;28;20338;-79
2022/01/12 12:02:08;;;;;;;10.20;3.10;;;;;;;0.14;46.88;94875.66;5037642;28;20030;-80
2022/01/12 12:04:35;;;;;;;7.07;3.53;;;;;;;0.09;46.95;94872.09;5039622;28;20029;-79
2022/01/12 12:07:11;;;;;;;6.25;3.22;;;;;;;0.13;47.09;94879.28;5025686;28;20026;-78
2022/01/12 12:09:38;;;;;;;7.97;2.85;;;;;;;0.05;46.15;94882.22;5026067;28;20088;-80
2022/01/12 12:12:16;;;;;;;6.95;4.00;;;;;;;0.08;47.15;94883.59;5025751;28;20108;-81
2022/01/12 12:14:53;;;;;;;4.45;2.88;;;;;;;0.11;47.14;94880.53;5025543;28;20017;-80
2022/01/12 12:17:20;;;;;;;9.68;3.25;;;;;;;0.02;46.64;94868.75;5025773;28;20247;-82
2022/01/12 12:19:46;;;;;;;8.32;3.47;;;;;;;0.15;46.60;94872.00;5025776;28;20033;-82
2022/01/12 12:22:17;;;;;;;16.88;6.40;;;;;;;0.28;46.57;94881.50;5025632;28;20025;-81
2022/01/12 12:24:44;;;;;;;12.40;7.28;;;;;;;0.40;46.21;94884.16;5025433;28;20029;-81
2022/01/12 12:27:11;;;;;;;7.43;4.10;;;;;;;0.47;45.11;94878.81;5024153;28;20022;-79
2022/01/12 12:29:38;;;;;;;5.18;2.70;;;;;;;0.57;46.05;94885.13;5025512;28;20068;-80
2022/01/12 12:32:07;;;;;;;8.68;2.70;;;;;;;0.63;45.36;94872.13;5025656;28;20032;-79
2022/01/12 12:34:35;;;;;;;9.68;3.70;;;;;;;0.59;45.17;94874.38;5040802;28;20029;-80
2022/01/12 12:37:04;;;;;;;8.38;2.90;;;;;;;0.58;45.54;94872.81;5040197;28;20026;-79
2022/01/12 12:39:33;;;;;;;5.90;2.78;;;;;;;0.59;45.10;94869.97;5025254;28;20026;-81
2022/01/12 12:42:00;;;;;;;5.38;2.40;;;;;;;0.50;44.04;94873.91;5025220;28;20037;-81
2022/01/12 12:44:28;;;;;;;5.25;2.83;;;;;;;0.47;44.98;94866.53;5025193;28;20057;-79
2022/01/12 12:47:09;;;;;;;4.53;2.40;;;;;;;0.46;44.69;94864.13;5040382;28;20032;-77
2022/01/12 12:49:50;;;;;;;4.27;2.50;;;;;;;0.49;45.09;94867.09;5025229;28;20317;-75
2022/01/12 12:52:36;;;;;;;6.18;2.90;;;;;;;0.55;45.63;94868.81;5024948;28;20046;-76
2022/01/12 12:55:12;;;;;;;9.20;3.65;;;;;;;0.63;46.96;94866.88;5024962;28;20048;-78
2022/01/12 12:57:46;;;;;;;7.43;4.07;;;;;;;0.66;46.51;94879.56;5024880;28;20034;-77
2022/01/12 13:00:13;;;;;;;10.35;3.78;;;;;;;0.76;46.29;94867.47;5024784;28;20256;-75
2022/01/12 13:02:42;;;;;;;10.90;3.70;;;;;;;0.78;45.63;94875.91;5024615;28;20232;-77
2022/01/12 13:05:12;;;;;;;7.65;3.78;;;;;;;0.80;45.47;94867.81;5024858;28;20032;-75
2022/01/12 13:07:39;;;;;;;8.40;3.72;;;;;;;0.72;44.70;94865.53;5024693;28;20018;-76
2022/01/12 13:10:07;;;;;;;6.32;3.05;;;;;;;0.72;44.25;94866.31;5024847;28;20025;-77
2022/01/12 13:12:37;;;;;;;8.90;3.55;;;;;;;0.67;44.55;94873.28;5024485;28;20037;-77
2022/01/12 13:15:04;;;;;;;8.57;2.53;;;;;;;0.63;44.28;94875.53;5023796;28;20022;-77
2022/01/12 13:17:30;;;;;;;6.07;2.70;;;;;;;0.60;43.15;94874.16;5026548;28;20032;-77
2022/01/12 13:22:36;;;;;;;5.55;2.55;;;;;;;0.45;43.29;94886.09;5024559;28;20024;-77